createdAt,value
2019-06-08T00:00:47.268Z,98554.47
2019-06-08T00:03:16.683Z,98548.34
2019-06-08T00:05:45.445Z,98545.95
2019-06-08T00:08:14.804Z,98545.80
2019-06-08T00:10:43.436Z,98544.64
2019-06-08T00:13:13.139Z,98540.67
2019-06-08T00:15:41.842Z,98545.09
2019-06-08T00:18:10.527Z,98541.62
2019-06-08T00:20:39.453Z,98542.12
2019-06-08T00:23:07.966Z,98541.11
2019-06-08T00:25:36.686Z,98541.61
2019-06-08T00:28:05.489Z,98545.30
2019-06-08T00:30:35.275Z,98562.78
2019-06-08T00:33:04.278Z,98564.62
2019-06-08T00:35:32.850Z,98583.76
2019-06-08T00:38:01.583Z,98598.38
2019-06-08T00:40:30.342Z,98603.16
2019-06-08T00:42:58.851Z,98613.27
2019-06-08T00:45:27.404Z,98620.80
2019-06-08T00:47:56.052Z,98628.72
2019-06-08T00:50:25.155Z,98629.34
2019-06-08T00:52:53.822Z,98631.47
2019-06-08T00:55:23.662Z,98633.59
2019-06-08T00:57:52.780Z,98637.69
2019-06-08T01:00:22.586Z,98642.25
2019-06-08T01:02:51.276Z,98648.89
2019-06-08T01:05:20.017Z,98657.88
2019-06-08T01:07:48.754Z,98664.72
2019-06-08T01:10:19.150Z,98673.84
2019-06-08T01:12:47.763Z,98675.30
2019-06-08T01:15:16.895Z,98681.75
2019-06-08T01:18:01.335Z,98673.80
2019-06-08T01:20:16.416Z,98681.75
2019-06-08T01:22:45.037Z,98694.09
2019-06-08T01:25:14.049Z,98708.39
2019-06-08T01:27:42.769Z,98710.33
2019-06-08T01:30:11.789Z,98720.68
2019-06-08T01:32:40.540Z,98720.91
2019-06-08T01:35:09.250Z,98737.46
2019-06-08T01:37:37.987Z,98744.97
2019-06-08T01:40:07.734Z,98745.92
2019-06-08T01:42:36.449Z,98739.84
2019-06-08T01:45:07.192Z,98746.01
2019-06-08T01:47:35.834Z,98747.63
2019-06-08T01:50:05.632Z,98765.66
2019-06-08T01:52:34.829Z,98771.27
2019-06-08T01:55:04.379Z,98776.58
2019-06-08T01:57:33.831Z,98773.40
2019-06-08T02:00:28.761Z,98776.84
2019-06-08T02:02:34.219Z,98789.37
2019-06-08T02:05:03.228Z,98795.47
2019-06-08T02:07:32.425Z,98814.05
2019-06-08T02:10:01.152Z,98839.04
2019-06-08T02:12:31.065Z,98832.11
2019-06-08T02:15:00.154Z,98840.64
2019-06-08T02:17:29.354Z,98851.00
2019-06-08T02:19:58.001Z,98852.58
2019-06-08T02:22:26.795Z,98846.48
2019-06-08T02:24:55.224Z,98866.16
2019-06-08T02:27:23.727Z,98853.33
2019-06-08T02:29:52.210Z,98853.83
2019-06-08T02:32:20.679Z,98857.50
2019-06-08T02:34:49.436Z,98873.41
2019-06-08T02:37:18.150Z,98881.86
2019-06-08T02:39:46.706Z,98877.87
2019-06-08T02:42:15.259Z,98880.52
2019-06-08T02:44:43.767Z,98890.03
2019-06-08T02:47:16.178Z,98891.91
2019-06-08T02:49:42.508Z,98893.05
2019-06-08T02:52:11.535Z,98902.35
2019-06-08T02:54:41.357Z,98909.81
2019-06-08T02:57:11.434Z,98923.08
2019-06-08T02:59:41.443Z,98927.30
2019-06-08T03:02:11.764Z,98932.79
2019-06-08T03:04:41.318Z,98937.31
2019-06-08T03:07:10.921Z,98950.77
2019-06-08T03:09:41.094Z,98963.95
2019-06-08T03:12:09.708Z,98958.88
2019-06-08T03:14:41.857Z,98956.94
2019-06-08T03:17:09.961Z,98953.96
2019-06-08T03:19:39.962Z,98970.09
2019-06-08T03:22:10.909Z,98968.45
2019-06-08T03:24:38.893Z,98971.11
2019-06-08T03:27:07.344Z,98970.90
2019-06-08T03:29:37.264Z,98966.92
2019-06-08T03:32:06.056Z,98971.45
2019-06-08T03:34:35.707Z,98961.91
2019-06-08T03:37:04.806Z,98968.34
2019-06-08T03:39:35.247Z,98978.08
2019-06-08T03:42:03.618Z,98972.20
2019-06-08T03:44:32.114Z,98983.92
2019-06-08T03:47:00.595Z,98989.84
2019-06-08T03:49:40.989Z,98992.69
2019-06-08T03:51:59.373Z,99006.80
2019-06-08T03:54:27.875Z,98999.07
2019-06-08T03:56:56.461Z,99001.69
2019-06-08T03:59:24.969Z,99010.37
2019-06-08T04:01:53.507Z,98995.70
2019-06-08T04:04:22.002Z,99005.35
2019-06-08T04:06:50.482Z,99006.67
2019-06-08T04:09:18.995Z,99005.59
2019-06-08T04:11:47.461Z,99000.20
2019-06-08T04:14:15.973Z,99007.97
2019-06-08T04:16:45.056Z,99008.52
2019-06-08T04:19:14.666Z,99004.53
2019-06-08T04:21:44.317Z,99015.94
2019-06-08T04:24:12.892Z,99021.82
2019-06-08T04:26:42.936Z,99022.48
2019-06-08T04:29:11.602Z,99022.97
2019-06-08T04:31:41.776Z,99031.80
2019-06-08T04:34:10.437Z,99033.84
2019-06-08T04:36:39.055Z,99031.19
2019-06-08T04:39:08.430Z,99035.30
2019-06-08T04:41:38.507Z,99036.58
2019-06-08T04:44:07.138Z,99047.01
2019-06-08T04:46:35.640Z,99064.88
2019-06-08T04:49:04.238Z,99072.36
2019-06-08T04:51:32.754Z,99072.66
2019-06-08T04:54:01.247Z,99071.63
2019-06-08T04:56:29.749Z,99078.88
2019-06-08T04:58:58.225Z,99077.08
2019-06-08T05:01:26.730Z,99071.94
2019-06-08T05:03:55.207Z,99078.78
2019-06-08T05:06:23.717Z,99081.96
2019-06-08T05:08:52.187Z,99078.47
2019-06-08T05:11:20.804Z,99090.39
2019-06-08T05:13:49.852Z,99112.77
2019-06-08T05:16:18.523Z,99106.61
2019-06-08T05:18:47.389Z,99108.36
2019-06-08T05:21:16.022Z,99125.27
2019-06-08T05:23:45.590Z,99117.57
2019-06-08T05:26:14.505Z,99118.54
2019-06-08T05:28:43.222Z,99129.03
2019-06-08T05:31:11.818Z,99136.40
2019-06-08T05:33:41.318Z,99142.09
2019-06-08T05:36:09.934Z,99155.47
2019-06-08T05:38:39.459Z,99158.11
2019-06-08T05:41:07.988Z,99164.86
2019-06-08T05:43:36.569Z,99177.66
2019-06-08T05:46:05.372Z,99182.77
2019-06-08T05:48:33.863Z,99184.91
2019-06-08T05:51:04.190Z,99185.94
2019-06-08T05:53:32.748Z,99175.05
2019-06-08T05:56:01.255Z,99188.40
2019-06-08T05:58:29.722Z,99198.05
2019-06-08T06:00:58.305Z,99186.42
2019-06-08T06:03:26.787Z,99171.33
2019-06-08T06:05:55.280Z,99175.56
2019-06-08T06:08:23.750Z,99181.16
2019-06-08T06:10:52.261Z,99181.77
2019-06-08T06:13:20.740Z,99187.16
2019-06-08T06:15:49.254Z,99193.69
2019-06-08T06:18:17.702Z,99203.19
2019-06-08T06:20:47.293Z,99204.66
2019-06-08T06:23:15.822Z,99210.81
2019-06-08T06:25:45.383Z,99217.61
2019-06-08T06:28:13.970Z,99217.78
2019-06-08T06:30:44.116Z,99232.31
2019-06-08T06:33:12.720Z,99236.78
2019-06-08T06:35:41.637Z,99242.61
2019-06-08T06:38:10.269Z,99255.19
2019-06-08T06:40:38.827Z,99260.92
2019-06-08T06:43:07.326Z,99258.09
2019-06-08T06:45:35.805Z,99272.43
2019-06-08T06:48:04.391Z,99276.59
2019-06-08T06:50:32.852Z,99278.86
2019-06-08T06:53:01.348Z,99277.03
2019-06-08T06:55:29.833Z,99275.09
2019-06-08T06:57:58.326Z,99272.19
2019-06-08T07:00:32.140Z,99275.92
2019-06-08T07:03:01.883Z,99270.04
2019-06-08T07:05:30.421Z,99269.84
2019-06-08T07:07:58.927Z,99278.95
2019-06-08T07:10:27.397Z,99283.04
2019-06-08T07:12:55.898Z,99296.50
2019-06-08T07:15:26.795Z,99296.12
2019-06-08T07:17:55.828Z,99289.22
2019-06-08T07:20:24.366Z,99286.91
2019-06-08T07:22:52.871Z,99285.55
2019-06-08T07:25:21.338Z,99293.08
2019-06-08T07:27:50.523Z,99294.94
2019-06-08T07:30:19.146Z,99293.16
2019-06-08T07:32:49.141Z,99314.20
2019-06-08T07:35:17.810Z,99304.97
2019-06-08T07:37:47.281Z,99310.92
2019-06-08T07:40:16.576Z,99307.45
2019-06-08T07:42:45.082Z,99319.00
2019-06-08T07:45:13.696Z,99321.90
2019-06-08T07:47:42.294Z,99327.98
2019-06-08T07:50:11.167Z,99337.89
2019-06-08T07:52:39.663Z,99335.22
2019-06-08T07:55:08.952Z,99340.28
2019-06-08T07:57:37.455Z,99352.30
2019-06-08T08:00:09.613Z,99350.71
2019-06-08T08:02:38.341Z,99356.03
2019-06-08T08:05:07.884Z,99367.44
2019-06-08T08:07:36.722Z,99364.70
2019-06-08T08:10:09.049Z,99367.50
2019-06-08T08:12:38.096Z,99361.36
2019-06-08T08:15:10.537Z,99365.68
2019-06-08T08:17:39.492Z,99372.61
2019-06-08T08:20:08.724Z,99375.59
2019-06-08T08:22:38.174Z,99377.52
2019-06-08T08:25:10.508Z,99377.00
2019-06-08T08:27:39.112Z,99376.20
2019-06-08T08:30:08.541Z,99371.94
2019-06-08T08:32:37.984Z,99368.20
2019-06-08T08:35:08.848Z,99370.29
2019-06-08T08:37:38.179Z,99380.66
2019-06-08T08:40:08.363Z,99379.92
2019-06-08T08:42:38.659Z,99380.04
2019-06-08T08:45:08.643Z,99386.16
2019-06-08T08:47:38.705Z,99388.05
2019-06-08T08:50:08.980Z,99398.72
2019-06-08T08:52:40.708Z,99404.33
2019-06-08T08:55:08.490Z,99405.65
2019-06-08T08:57:41.170Z,99414.97
2019-06-08T09:00:09.238Z,99408.56
2019-06-08T09:02:38.034Z,99402.94
2019-06-08T09:05:08.628Z,99404.58
2019-06-08T09:07:38.465Z,99412.59
2019-06-08T09:10:11.273Z,99421.39
2019-06-08T09:12:39.517Z,99413.66
2019-06-08T09:15:08.753Z,99413.13
2019-06-08T09:17:38.841Z,99411.80
2019-06-08T09:20:13.099Z,99407.79
2019-06-08T09:22:52.319Z,99410.98
2019-06-08T09:25:09.074Z,99412.33
2019-06-08T09:27:38.251Z,99414.44
2019-06-08T09:30:08.410Z,99416.06
2019-06-08T09:32:38.213Z,99416.89
2019-06-08T09:35:09.080Z,99415.52
2019-06-08T09:37:37.621Z,99426.71
2019-06-08T09:40:06.676Z,99432.33
2019-06-08T09:42:35.227Z,99428.09
2019-06-08T09:45:08.617Z,99420.32
2019-06-08T09:47:38.114Z,99419.91
2019-06-08T09:50:09.241Z,99430.80
2019-06-08T09:52:40.937Z,99433.52
2019-06-08T09:55:09.807Z,99430.61
2019-06-08T09:57:38.642Z,99441.03
2019-06-08T10:00:17.577Z,99444.20
2019-06-08T10:02:38.973Z,99448.61
2019-06-08T10:05:07.855Z,99447.98
2019-06-08T10:07:38.943Z,99450.47
2019-06-08T10:10:09.620Z,99449.55
2019-06-08T10:12:37.784Z,99448.12
2019-06-08T10:15:08.200Z,99454.58
2019-06-08T10:17:37.719Z,99458.94
2019-06-08T10:20:10.062Z,99455.64
2019-06-08T10:22:37.750Z,99462.80
2019-06-08T10:25:10.751Z,99461.73
2019-06-08T10:27:38.640Z,99462.29
2019-06-08T10:30:10.031Z,99460.97
2019-06-08T10:32:39.207Z,99467.05
2019-06-08T10:35:10.425Z,99455.78
2019-06-08T10:37:38.737Z,99463.03
2019-06-08T10:40:09.973Z,99460.06
2019-06-08T10:42:40.167Z,99456.14
2019-06-08T10:45:14.629Z,99458.17
2019-06-08T10:47:40.596Z,99444.78
2019-06-08T10:50:15.081Z,99451.86
2019-06-08T10:52:41.073Z,99454.52
2019-06-08T10:55:11.982Z,99455.20
2019-06-08T10:57:39.974Z,99468.03
2019-06-08T11:00:20.123Z,99459.59
2019-06-08T11:02:42.995Z,99460.34
2019-06-08T11:05:13.916Z,99452.52
2019-06-08T11:07:41.888Z,99462.88
2019-06-08T11:10:12.495Z,99465.23
2019-06-08T11:12:41.123Z,99460.01
2019-06-08T11:15:11.752Z,99455.92
2019-06-08T11:17:40.223Z,99442.95
2019-06-08T11:20:13.024Z,99447.28
2019-06-08T11:22:39.068Z,99446.09
2019-06-08T11:25:15.468Z,99450.13
2019-06-08T11:27:38.872Z,99451.20
2019-06-08T11:30:14.307Z,99441.33
2019-06-08T11:32:38.354Z,99445.28
2019-06-08T11:35:10.712Z,99441.91
2019-06-08T11:37:38.675Z,99447.41
2019-06-08T11:40:10.982Z,99445.78
2019-06-08T11:42:38.876Z,99442.31
2019-06-08T11:45:11.147Z,99435.84
2019-06-08T11:47:39.567Z,99437.66
2019-06-08T11:50:12.933Z,99441.80
2019-06-08T11:52:39.811Z,99455.84
2019-06-08T11:55:11.305Z,99449.66
2019-06-08T11:57:40.429Z,99448.66
2019-06-08T12:00:22.363Z,99442.39
2019-06-08T12:02:41.421Z,99437.17
2019-06-08T12:05:12.450Z,99446.42
2019-06-08T12:07:40.653Z,99448.35
2019-06-08T12:10:11.336Z,99443.75
2019-06-08T12:12:39.415Z,99444.69
2019-06-08T12:15:11.285Z,99451.81
2019-06-08T12:17:38.631Z,99463.31
2019-06-08T12:20:08.622Z,99471.59
2019-06-08T12:22:37.765Z,99469.39
2019-06-08T12:25:08.238Z,99477.97
2019-06-08T12:27:40.137Z,99473.06
2019-06-08T12:30:13.579Z,99473.28
2019-06-08T12:32:37.432Z,99475.55
2019-06-08T12:35:08.157Z,99469.98
2019-06-08T12:37:38.730Z,99476.64
2019-06-08T12:40:10.218Z,99477.66
2019-06-08T12:42:38.279Z,99478.78
2019-06-08T12:45:07.481Z,99471.08
2019-06-08T12:47:38.090Z,99478.91
2019-06-08T12:50:08.916Z,99482.98
2019-06-08T12:52:39.134Z,99485.85
2019-06-08T12:55:14.421Z,99485.83
2019-06-08T12:57:38.490Z,99478.86
2019-06-08T13:00:09.407Z,99482.75
2019-06-08T13:02:38.390Z,99479.17
2019-06-08T13:05:11.591Z,99477.97
2019-06-08T13:07:38.695Z,99485.59
2019-06-08T13:10:10.980Z,99479.84
2019-06-08T13:12:40.914Z,99480.97
2019-06-08T13:15:11.257Z,99485.51
2019-06-08T13:17:40.124Z,99482.52
2019-06-08T13:20:12.710Z,99480.62
2019-06-08T13:22:41.222Z,99487.14
2019-06-08T13:25:21.054Z,99487.89
2019-06-08T13:27:39.991Z,99486.06
2019-06-08T13:30:09.567Z,99492.20
2019-06-08T13:32:40.265Z,99486.75
2019-06-08T13:35:10.402Z,99487.86
2019-06-08T13:37:39.221Z,99493.55
2019-06-08T13:40:08.360Z,99481.52
2019-06-08T13:42:38.285Z,99488.27
2019-06-08T13:45:08.960Z,99484.70
2019-06-08T13:47:40.976Z,99488.19
2019-06-08T13:50:10.993Z,99490.01
2019-06-08T13:52:40.211Z,99496.51
2019-06-08T13:55:08.954Z,99491.69
2019-06-08T13:57:38.275Z,99494.80
2019-06-08T14:00:09.339Z,99486.75
2019-06-08T14:02:39.800Z,99491.75
2019-06-08T14:05:08.710Z,99486.30
2019-06-08T14:07:38.098Z,99488.30
2019-06-08T14:10:08.395Z,99487.62
2019-06-08T14:12:38.430Z,99490.77
2019-06-08T14:15:08.597Z,99493.72
2019-06-08T14:17:37.901Z,99490.56
2019-06-08T14:20:08.048Z,99488.91
2019-06-08T14:22:38.855Z,99490.47
2019-06-08T14:25:10.458Z,99494.85
2019-06-08T14:27:37.578Z,99489.53
2019-06-08T14:30:08.394Z,99487.28
2019-06-08T14:32:38.098Z,99490.19
2019-06-08T14:35:08.739Z,99484.81
2019-06-08T14:37:38.070Z,99495.31
2019-06-08T14:40:08.312Z,99487.97
2019-06-08T14:42:38.350Z,99480.58
2019-06-08T14:45:11.007Z,99490.11
2019-06-08T14:47:39.704Z,99492.66
2019-06-08T14:50:08.935Z,99485.94
2019-06-08T14:52:38.123Z,99486.39
2019-06-08T14:55:07.992Z,99493.06
2019-06-08T14:57:37.474Z,99485.02
2019-06-08T15:00:12.171Z,99489.69
2019-06-08T15:02:38.930Z,99489.76
2019-06-08T15:05:07.912Z,99476.08
2019-06-08T15:07:38.655Z,99478.98
2019-06-08T15:10:09.806Z,99477.14
2019-06-08T15:12:38.395Z,99474.37
2019-06-08T15:15:08.327Z,99473.30
2019-06-08T15:17:38.071Z,99473.34
2019-06-08T15:20:08.950Z,99469.06
2019-06-08T15:22:38.860Z,99470.50
2019-06-08T15:25:11.011Z,99470.56
2019-06-08T15:27:38.942Z,99475.78
2019-06-08T15:30:07.803Z,99474.16
2019-06-08T15:32:38.564Z,99470.05
2019-06-08T15:35:08.045Z,99466.77
2019-06-08T15:37:37.976Z,99471.19
2019-06-08T15:40:08.852Z,99464.20
2019-06-08T15:42:37.390Z,99469.87
2019-06-08T15:45:08.604Z,99470.27
2019-06-08T15:47:40.510Z,99474.13
2019-06-08T15:50:08.917Z,99472.63
2019-06-08T15:52:38.079Z,99482.88
2019-06-08T15:55:10.868Z,99480.97
2019-06-08T15:57:40.790Z,99470.95
2019-06-08T16:00:10.155Z,99468.30
2019-06-08T16:02:38.803Z,99463.41
2019-06-08T16:05:07.332Z,99458.50
2019-06-08T16:07:35.812Z,99460.37
2019-06-08T16:10:06.754Z,99461.33
2019-06-08T16:12:35.243Z,99469.98
2019-06-08T16:15:05.483Z,99458.92
2019-06-08T16:17:35.432Z,99459.09
2019-06-08T16:20:05.040Z,99464.56
2019-06-08T16:22:33.879Z,99465.04
2019-06-08T16:25:02.479Z,99475.77
2019-06-08T16:27:32.160Z,99464.53
2019-06-08T16:30:08.750Z,99470.64
2019-06-08T16:32:31.528Z,99473.36
2019-06-08T16:35:00.106Z,99471.56
2019-06-08T16:37:29.542Z,99466.30
2019-06-08T16:39:58.085Z,99476.30
2019-06-08T16:42:27.861Z,99474.17
2019-06-08T16:44:56.419Z,99471.96
2019-06-08T16:47:25.093Z,99474.93
2019-06-08T16:49:53.568Z,99471.52
2019-06-08T16:52:22.075Z,99479.27
2019-06-08T16:54:50.548Z,99478.94
2019-06-08T16:57:19.040Z,99484.98
2019-06-08T16:59:47.510Z,99482.47
2019-06-08T17:02:17.080Z,99486.29
2019-06-08T17:04:45.671Z,99483.93
2019-06-08T17:07:14.167Z,99482.39
2019-06-08T17:09:42.710Z,99486.92
2019-06-08T17:12:11.698Z,99485.50
2019-06-08T17:14:40.760Z,99488.78
2019-06-08T17:17:09.398Z,99488.78
2019-06-08T17:19:38.437Z,99489.39
2019-06-08T17:22:07.149Z,99479.58
2019-06-08T17:24:36.689Z,99487.03
2019-06-08T17:27:05.297Z,99492.99
2019-06-08T17:29:34.907Z,99494.69
2019-06-08T17:32:03.554Z,99495.73
2019-06-08T17:34:32.020Z,99500.19
2019-06-08T17:37:00.527Z,99502.73
2019-06-08T17:39:29.602Z,99506.25
2019-06-08T17:41:58.160Z,99502.94
2019-06-08T17:44:26.641Z,99511.66
2019-06-08T17:46:55.232Z,99507.78
2019-06-08T17:49:23.716Z,99506.58
2019-06-08T17:51:52.222Z,99514.07
2019-06-08T17:54:20.694Z,99514.95
2019-06-08T17:56:49.191Z,99517.22
2019-06-08T17:59:17.669Z,99515.42
2019-06-08T18:01:46.735Z,99517.50
2019-06-08T18:04:17.394Z,99518.64
2019-06-08T18:06:47.372Z,99525.75
2019-06-08T18:09:17.539Z,99529.39
2019-06-08T18:11:48.025Z,99528.25
2019-06-08T18:14:18.115Z,99512.18
2019-06-08T18:16:47.987Z,99531.37
2019-06-08T18:19:19.576Z,99528.98
2019-06-08T18:21:48.072Z,99525.06
2019-06-08T18:24:17.512Z,99525.36
2019-06-08T18:26:47.473Z,99531.47
2019-06-08T18:29:18.034Z,99522.06
2019-06-08T18:31:48.066Z,99531.81
2019-06-08T18:34:17.787Z,99530.58
2019-06-08T18:36:47.950Z,99542.20
2019-06-08T18:39:18.055Z,99540.73
2019-06-08T18:41:48.424Z,99546.69
2019-06-08T18:44:17.480Z,99552.30
2019-06-08T18:46:48.186Z,99552.52
2019-06-08T18:49:17.870Z,99552.51
2019-06-08T18:51:49.080Z,99556.23
2019-06-08T18:54:18.804Z,99563.62
2019-06-08T18:56:48.825Z,99567.29
2019-06-08T18:59:18.494Z,99573.31
2019-06-08T19:01:49.490Z,99582.10
2019-06-08T19:04:17.650Z,99580.08
2019-06-08T19:06:48.778Z,99579.55
2019-06-08T19:09:17.825Z,99590.70
2019-06-08T19:11:48.416Z,99592.34
2019-06-08T19:14:17.895Z,99591.14
2019-06-08T19:16:51.429Z,99599.27
2019-06-08T19:19:16.932Z,99601.88
2019-06-08T19:21:46.017Z,99612.52
2019-06-08T19:24:18.051Z,99621.75
2019-06-08T19:26:47.397Z,99621.30
2019-06-08T19:29:19.130Z,99625.11
2019-06-08T19:31:49.704Z,99624.78
2019-06-08T19:34:18.120Z,99631.39
2019-06-08T19:36:52.140Z,99639.50
2019-06-08T19:39:18.016Z,99642.47
2019-06-08T19:41:49.231Z,99644.54
2019-06-08T19:44:18.296Z,99644.33
2019-06-08T19:46:51.999Z,99644.66
2019-06-08T19:49:17.443Z,99655.27
2019-06-08T19:51:49.365Z,99657.42
2019-06-08T19:54:18.286Z,99662.47
2019-06-08T19:56:49.374Z,99661.30
2019-06-08T19:59:18.246Z,99670.94
2019-06-08T20:01:51.361Z,99670.98
2019-06-08T20:04:18.245Z,99675.34
2019-06-08T20:06:48.095Z,99670.06
2019-06-08T20:09:17.519Z,99682.30
2019-06-08T20:11:52.469Z,99682.62
2019-06-08T20:14:16.213Z,99689.17
2019-06-08T20:16:44.794Z,99687.96
2019-06-08T20:19:13.266Z,99685.95
2019-06-08T20:21:42.831Z,99682.64
2019-06-08T20:24:11.420Z,99687.55
2019-06-08T20:26:39.886Z,99692.19
2019-06-08T20:29:13.529Z,99690.66
2019-06-08T20:31:39.117Z,99687.05
2019-06-08T20:34:07.763Z,99693.52
2019-06-08T20:36:37.526Z,99690.02
2019-06-08T20:39:08.346Z,99693.63
2019-06-08T20:41:37.693Z,99696.31
2019-06-08T20:44:08.480Z,99695.65
2019-06-08T20:46:37.763Z,99694.72
2019-06-08T20:49:08.391Z,99688.67
2019-06-08T20:51:37.515Z,99696.37
2019-06-08T20:54:07.940Z,99696.73
2019-06-08T20:56:37.190Z,99708.45
2019-06-08T20:59:08.036Z,99715.42
2019-06-08T21:01:36.030Z,99717.47
2019-06-08T21:04:04.668Z,99720.34
2019-06-08T21:06:33.142Z,99723.23
2019-06-08T21:09:01.620Z,99729.53
2019-06-08T21:11:30.214Z,99735.01
2019-06-08T21:13:58.678Z,99735.72
2019-06-08T21:16:27.664Z,99742.41
2019-06-08T21:18:58.048Z,99737.38
2019-06-08T21:21:28.351Z,99743.45
2019-06-08T21:24:00.964Z,99748.84
2019-06-08T21:26:27.292Z,99742.89
2019-06-08T21:29:00.135Z,99752.83
2019-06-08T21:31:28.401Z,99753.67
2019-06-08T21:34:00.472Z,99756.00
2019-06-08T21:36:26.476Z,99762.80
2019-06-08T21:38:59.891Z,99762.36
2019-06-08T21:41:27.732Z,99769.05
2019-06-08T21:43:59.594Z,99772.52
2019-06-08T21:46:27.528Z,99773.31
2019-06-08T21:48:56.895Z,99778.28
2019-06-08T21:51:26.342Z,99774.34
2019-06-08T21:53:54.809Z,99775.07
2019-06-08T21:56:23.313Z,99777.18
2019-06-08T21:58:53.045Z,99786.91
2019-06-08T22:01:22.691Z,99783.75
2019-06-08T22:03:51.727Z,99787.80
2019-06-08T22:06:20.338Z,99791.15
2019-06-08T22:08:49.915Z,99793.78
2019-06-08T22:11:18.596Z,99790.92
2019-06-08T22:13:47.629Z,99791.34
2019-06-08T22:16:16.377Z,99794.28
2019-06-08T22:18:47.329Z,99793.63
2019-06-08T22:21:17.919Z,99800.20
2019-06-08T22:23:47.478Z,99800.20
2019-06-08T22:26:17.639Z,99801.94
2019-06-08T22:28:48.047Z,99805.28
2019-06-08T22:31:17.115Z,99807.12
2019-06-08T22:33:48.169Z,99799.81
2019-06-08T22:36:16.955Z,99804.67
2019-06-08T22:38:47.603Z,99805.27
2019-06-08T22:41:17.346Z,99801.66
2019-06-08T22:43:48.001Z,99803.66
2019-06-08T22:46:17.802Z,99805.45
2019-06-08T22:48:47.802Z,99809.01
2019-06-08T22:51:18.748Z,99820.25
2019-06-08T22:53:47.800Z,99816.99
2019-06-08T22:56:18.280Z,99821.98
2019-06-08T22:58:47.931Z,99821.33
2019-06-08T23:01:18.363Z,99822.67
2019-06-08T23:03:47.644Z,99820.48
2019-06-08T23:06:17.711Z,99817.80
2019-06-08T23:08:48.038Z,99823.27
2019-06-08T23:11:18.000Z,99823.16
2019-06-08T23:13:47.313Z,99820.48
2019-06-08T23:16:18.008Z,99815.89
2019-06-08T23:18:47.784Z,99822.06
2019-06-08T23:21:18.059Z,99820.45
2019-06-08T23:23:47.749Z,99813.05
2019-06-08T23:26:18.330Z,99820.00
2019-06-08T23:28:47.144Z,99824.14
2019-06-08T23:31:24.198Z,99823.14
2019-06-08T23:33:48.280Z,99814.39
2019-06-08T23:36:45.523Z,99817.31
2019-06-08T23:38:48.127Z,99820.02
2019-06-08T23:41:17.716Z,99827.60
2019-06-08T23:43:48.107Z,99829.87
2019-06-08T23:46:18.083Z,99827.69
2019-06-08T23:48:48.442Z,99818.59
2019-06-08T23:51:18.112Z,99818.00
2019-06-08T23:53:47.787Z,99820.21
2019-06-08T23:56:18.355Z,99826.01
2019-06-08T23:58:48.267Z,99825.00
